createdAt,value
2023-04-28T00:01:01.483Z,18.63
2023-04-28T00:02:34.499Z,17.83
2023-04-28T00:04:08.252Z,18.00
2023-04-28T00:05:42.121Z,17.53
2023-04-28T00:07:15.192Z,18.10
2023-04-28T00:08:47.267Z,17.50
2023-04-28T00:10:20.381Z,16.47
2023-04-28T00:11:53.523Z,17.20
2023-04-28T00:13:26.669Z,17.53
2023-04-28T00:14:59.846Z,16.40
2023-04-28T00:16:33.007Z,16.63
2023-04-28T00:18:06.372Z,17.30
2023-04-28T00:19:38.797Z,16.50
2023-04-28T00:21:13.343Z,17.17
2023-04-28T00:22:46.587Z,16.67
2023-04-28T00:24:18.654Z,16.47
2023-04-28T00:25:53.097Z,17.33
2023-04-28T00:27:25.248Z,17.10
2023-04-28T00:28:58.277Z,16.83
2023-04-28T00:30:31.736Z,17.47
2023-04-28T00:32:05.038Z,16.83
2023-04-28T00:33:38.379Z,16.07
2023-04-28T00:35:11.472Z,16.50
2023-04-28T00:36:45.956Z,15.77
2023-04-28T00:38:18.077Z,16.13
2023-04-28T00:39:56.278Z,15.37
2023-04-28T00:41:28.596Z,15.37
2023-04-28T00:43:02.206Z,16.13
2023-04-28T00:44:35.346Z,16.83
2023-04-28T00:46:07.582Z,16.93
2023-04-28T00:47:40.946Z,14.93
2023-04-28T00:49:14.068Z,15.90
2023-04-28T00:50:48.401Z,16.37
2023-04-28T00:52:22.922Z,16.07
2023-04-28T00:53:56.120Z,16.80
2023-04-28T00:55:31.755Z,17.67
2023-04-28T00:57:05.213Z,16.70
2023-04-28T00:58:37.912Z,16.70
2023-04-28T01:00:12.172Z,16.60
2023-04-28T01:01:45.632Z,17.50
2023-04-28T01:03:19.336Z,16.27
2023-04-28T01:04:52.939Z,17.17
2023-04-28T01:06:28.618Z,16.60
2023-04-28T01:08:06.117Z,15.90
2023-04-28T01:09:39.597Z,15.53
2023-04-28T01:11:14.351Z,15.30
2023-04-28T01:13:07.844Z,15.43
2023-04-28T01:14:41.240Z,14.67
2023-04-28T01:16:14.504Z,14.77
2023-04-28T01:17:48.177Z,14.97
2023-04-28T01:19:22.380Z,14.27
2023-04-28T01:20:56.440Z,13.90
2023-04-28T01:22:29.513Z,13.47
2023-04-28T01:24:06.952Z,12.83
2023-04-28T01:25:40.052Z,12.60
2023-04-28T01:27:13.214Z,12.50
2023-04-28T01:28:47.943Z,13.27
2023-04-28T01:30:21.181Z,13.33
2023-04-28T01:31:54.403Z,13.40
2023-04-28T01:33:27.537Z,12.57
2023-04-28T01:35:00.609Z,12.73
2023-04-28T01:36:36.752Z,12.77
2023-04-28T01:38:10.550Z,12.93
2023-04-28T01:39:44.021Z,12.50
2023-04-28T01:41:17.224Z,11.73
2023-04-28T01:42:50.323Z,12.83
2023-04-28T01:44:23.445Z,12.43
2023-04-28T01:45:56.760Z,12.73
2023-04-28T01:47:30.895Z,12.67
2023-04-28T01:49:03.076Z,13.17
2023-04-28T01:50:36.213Z,12.83
2023-04-28T01:52:10.888Z,12.90
2023-04-28T01:53:43.154Z,12.53
2023-04-28T01:55:17.879Z,12.57
2023-04-28T01:56:50.018Z,12.80
2023-04-28T01:58:24.985Z,12.40
2023-04-28T01:59:57.154Z,11.97
2023-04-28T02:01:30.311Z,12.90
2023-04-28T02:03:03.528Z,12.83
2023-04-28T02:04:35.730Z,12.13
2023-04-28T02:06:09.012Z,12.97
2023-04-28T02:07:41.375Z,12.33
2023-04-28T02:09:14.491Z,11.50
2023-04-28T02:10:48.982Z,12.17
2023-04-28T02:12:22.066Z,12.23
2023-04-28T02:13:56.077Z,12.73
2023-04-28T02:15:28.249Z,12.37
2023-04-28T02:17:03.054Z,12.33
2023-04-28T02:18:36.330Z,12.77
2023-04-28T02:20:10.828Z,12.47
2023-04-28T02:21:44.304Z,12.73
2023-04-28T02:23:17.381Z,11.57
2023-04-28T02:24:49.702Z,12.03
2023-04-28T02:26:24.426Z,12.30
2023-04-28T02:27:59.184Z,11.60
2023-04-28T02:29:32.752Z,12.67
2023-04-28T02:31:07.205Z,12.63
2023-04-28T02:32:40.382Z,12.83
2023-04-28T02:34:13.627Z,12.43
2023-04-28T02:35:46.869Z,12.13
2023-04-28T02:37:20.043Z,11.57
2023-04-28T02:38:54.692Z,12.60
2023-04-28T02:40:27.956Z,12.60
2023-04-28T02:42:05.334Z,12.87
2023-04-28T02:43:38.684Z,13.30
2023-04-28T02:45:12.533Z,11.93
2023-04-28T02:46:46.311Z,11.63
2023-04-28T02:48:19.467Z,12.80
2023-04-28T02:49:51.602Z,12.13
2023-04-28T02:51:24.728Z,12.50
2023-04-28T02:52:57.858Z,12.27
2023-04-28T02:54:31.066Z,12.10
2023-04-28T02:56:04.688Z,12.17
2023-04-28T02:57:43.394Z,12.00
2023-04-28T02:59:16.579Z,12.47
2023-04-28T03:00:49.992Z,12.83
2023-04-28T03:02:24.138Z,12.07
2023-04-28T03:03:56.549Z,12.27
2023-04-28T03:05:29.980Z,12.20
2023-04-28T03:07:03.070Z,11.87
2023-04-28T03:08:36.234Z,12.40
2023-04-28T03:10:10.244Z,11.70
2023-04-28T03:11:43.441Z,12.53
2023-04-28T03:13:17.941Z,11.63
2023-04-28T03:14:51.309Z,12.57
2023-04-28T03:16:24.565Z,12.30
2023-04-28T03:17:57.832Z,11.90
2023-04-28T03:19:30.014Z,11.23
2023-04-28T03:21:03.296Z,11.60
2023-04-28T03:22:36.014Z,11.47
2023-04-28T03:24:09.971Z,12.40
2023-04-28T03:25:42.409Z,11.60
2023-04-28T03:27:15.720Z,11.93
2023-04-28T03:28:50.185Z,11.43
2023-04-28T03:30:23.161Z,11.53
2023-04-28T03:31:56.299Z,11.93
2023-04-28T03:33:28.875Z,12.53
2023-04-28T03:35:02.385Z,11.60
2023-04-28T03:36:35.528Z,12.00
2023-04-28T03:38:15.773Z,12.90
2023-04-28T03:39:47.934Z,12.53
2023-04-28T03:41:21.086Z,12.37
2023-04-28T03:43:13.243Z,12.33
2023-04-28T03:45:02.156Z,12.43
2023-04-28T03:46:35.441Z,12.80
2023-04-28T03:48:09.670Z,12.03
2023-04-28T03:49:43.076Z,12.17
2023-04-28T03:51:15.267Z,12.60
2023-04-28T03:52:48.413Z,12.10
2023-04-28T03:54:21.524Z,11.90
2023-04-28T03:55:54.952Z,12.47
2023-04-28T03:57:28.176Z,11.63
2023-04-28T03:59:00.465Z,11.47
2023-04-28T04:00:34.978Z,12.67
2023-04-28T04:02:08.303Z,11.90
2023-04-28T04:03:41.750Z,12.10
2023-04-28T04:05:15.256Z,10.90
2023-04-28T04:06:47.714Z,11.17
2023-04-28T04:08:21.055Z,11.67
2023-04-28T04:09:54.204Z,11.50
2023-04-28T04:11:27.368Z,12.10
2023-04-28T04:13:00.587Z,11.70
2023-04-28T04:14:33.738Z,12.00
2023-04-28T04:16:08.952Z,11.93
2023-04-28T04:17:42.264Z,11.87
2023-04-28T04:19:15.354Z,11.67
2023-04-28T04:20:50.749Z,12.27
2023-04-28T04:22:23.023Z,11.33
2023-04-28T04:23:56.246Z,11.80
2023-04-28T04:25:29.644Z,11.57
2023-04-28T04:27:01.993Z,12.27
2023-04-28T04:28:40.977Z,11.57
2023-04-28T04:30:15.711Z,12.00
2023-04-28T04:31:50.558Z,11.60
2023-04-28T04:33:23.843Z,12.13
2023-04-28T04:34:57.406Z,12.10
2023-04-28T04:36:32.873Z,12.77
2023-04-28T04:38:07.426Z,11.53
2023-04-28T04:39:39.958Z,11.87
2023-04-28T04:41:13.131Z,11.73
2023-04-28T04:42:46.537Z,12.17
2023-04-28T04:44:23.841Z,12.07
2023-04-28T04:45:59.401Z,12.03
2023-04-28T04:47:33.943Z,12.13
2023-04-28T04:49:07.706Z,11.27
2023-04-28T04:50:41.094Z,11.47
2023-04-28T04:52:14.307Z,11.73
2023-04-28T04:53:47.538Z,11.87
2023-04-28T04:55:21.152Z,12.20
2023-04-28T04:56:54.711Z,11.33
2023-04-28T04:58:45.337Z,11.53
2023-04-28T05:00:47.685Z,11.53
2023-04-28T05:02:20.956Z,11.83
2023-04-28T05:03:55.630Z,11.17
2023-04-28T05:05:29.324Z,11.30
2023-04-28T05:07:12.866Z,11.07
2023-04-28T05:08:47.250Z,10.40
2023-04-28T05:10:20.564Z,11.10
2023-04-28T05:11:54.066Z,11.30
2023-04-28T05:13:27.164Z,10.53
2023-04-28T05:15:06.646Z,10.57
2023-04-28T05:16:43.516Z,10.57
2023-04-28T05:18:28.272Z,10.67
2023-04-28T05:20:02.771Z,11.03
2023-04-28T05:21:34.993Z,10.83
2023-04-28T05:23:09.466Z,11.13
2023-04-28T05:24:42.918Z,10.10
2023-04-28T05:26:16.688Z,9.73
2023-04-28T05:27:50.069Z,10.97
2023-04-28T05:29:23.264Z,9.77
2023-04-28T05:30:56.394Z,10.33
2023-04-28T05:32:28.728Z,9.97
2023-04-28T05:34:02.006Z,9.87
2023-04-28T05:35:36.790Z,10.00
2023-04-28T05:37:09.918Z,9.27
2023-04-28T05:38:45.441Z,9.27
2023-04-28T05:40:19.026Z,9.83
2023-04-28T05:41:54.407Z,9.20
2023-04-28T05:43:28.184Z,9.30
2023-04-28T05:45:01.518Z,8.80
2023-04-28T05:46:34.966Z,9.17
2023-04-28T05:48:09.088Z,8.77
2023-04-28T05:49:42.268Z,8.40
2023-04-28T05:51:16.956Z,9.17
2023-04-28T05:52:50.145Z,9.63
2023-04-28T05:54:23.285Z,8.63
2023-04-28T05:55:59.127Z,7.90
2023-04-28T05:57:41.696Z,8.93
2023-04-28T05:59:23.565Z,8.43
2023-04-28T06:00:56.832Z,8.83
2023-04-28T06:02:30.144Z,8.50
2023-04-28T06:04:03.654Z,8.50
2023-04-28T06:05:37.424Z,9.00
2023-04-28T06:07:13.223Z,8.00
2023-04-28T06:08:46.724Z,8.30
2023-04-28T06:10:20.477Z,7.80
2023-04-28T06:11:53.611Z,7.83
2023-04-28T06:13:26.782Z,8.10
2023-04-28T06:14:59.859Z,7.37
2023-04-28T06:16:33.068Z,7.27
2023-04-28T06:18:07.063Z,7.90
2023-04-28T06:19:40.169Z,7.27
2023-04-28T06:21:13.436Z,7.10
2023-04-28T06:22:47.879Z,7.17
2023-04-28T06:24:21.065Z,6.77
2023-04-28T06:25:54.713Z,7.33
2023-04-28T06:27:27.882Z,6.77
2023-04-28T06:29:02.562Z,7.00
2023-04-28T06:30:36.784Z,7.50
2023-04-28T06:32:09.914Z,6.77
2023-04-28T06:33:43.038Z,7.17
2023-04-28T06:35:17.213Z,7.70
2023-04-28T06:36:50.329Z,7.73
2023-04-28T06:38:24.808Z,7.00
2023-04-28T06:39:57.902Z,7.50
2023-04-28T06:41:31.756Z,7.30
2023-04-28T06:43:05.754Z,7.10
2023-04-28T06:44:57.012Z,7.13
2023-04-28T06:46:30.199Z,7.60
2023-04-28T06:48:03.931Z,7.57
2023-04-28T06:49:37.091Z,7.17
2023-04-28T06:51:10.232Z,8.03
2023-04-28T06:52:43.342Z,7.13
2023-04-28T06:54:18.656Z,7.27
2023-04-28T06:55:52.095Z,7.00
2023-04-28T06:57:26.883Z,7.43
2023-04-28T06:59:01.360Z,7.00
2023-04-28T07:00:34.851Z,7.00
2023-04-28T07:02:09.351Z,7.57
2023-04-28T07:03:42.694Z,6.80
2023-04-28T07:05:16.644Z,7.10
2023-04-28T07:06:50.033Z,7.40
2023-04-28T07:08:23.157Z,7.20
2023-04-28T07:09:59.059Z,6.50
2023-04-28T07:11:33.442Z,7.00
2023-04-28T07:13:06.748Z,6.93
2023-04-28T07:14:39.832Z,6.70
2023-04-28T07:16:13.010Z,7.80
2023-04-28T07:17:46.199Z,6.70
2023-04-28T07:19:19.530Z,7.10
2023-04-28T07:20:52.645Z,6.63
2023-04-28T07:22:25.801Z,6.90
2023-04-28T07:23:58.900Z,6.70
2023-04-28T07:25:33.487Z,6.60
2023-04-28T07:27:07.791Z,6.73
2023-04-28T07:28:41.390Z,6.70
2023-04-28T07:30:26.565Z,7.07
2023-04-28T07:32:01.249Z,6.97
2023-04-28T07:33:34.414Z,6.30
2023-04-28T07:35:08.367Z,6.50
2023-04-28T07:36:41.638Z,6.57
2023-04-28T07:38:14.836Z,6.67
2023-04-28T07:39:47.981Z,6.80
2023-04-28T07:41:22.805Z,6.70
2023-04-28T07:42:55.902Z,6.70
2023-04-28T07:44:29.133Z,6.87
2023-04-28T07:46:02.314Z,6.07
2023-04-28T07:47:36.482Z,6.47
2023-04-28T07:49:09.777Z,6.80
2023-04-28T07:50:43.114Z,6.40
2023-04-28T07:52:16.238Z,6.50
2023-04-28T07:53:49.346Z,6.50
2023-04-28T07:55:22.472Z,6.43
2023-04-28T07:56:57.936Z,6.90
2023-04-28T07:58:31.120Z,6.10
2023-04-28T08:00:05.526Z,6.20
2023-04-28T08:01:44.889Z,6.00
2023-04-28T08:03:18.382Z,6.20
2023-04-28T08:04:51.884Z,5.37
2023-04-28T08:06:25.118Z,6.07
2023-04-28T08:07:58.273Z,5.97
2023-04-28T08:09:31.701Z,6.07
2023-04-28T08:11:04.988Z,6.00
2023-04-28T08:12:40.884Z,6.13
2023-04-28T08:14:14.479Z,5.93
2023-04-28T08:15:49.460Z,6.10
2023-04-28T08:17:22.610Z,6.40
2023-04-28T08:18:55.885Z,5.73
2023-04-28T08:20:30.221Z,6.30
2023-04-28T08:22:05.855Z,5.87
2023-04-28T08:23:39.181Z,5.33
2023-04-28T08:25:12.335Z,5.73
2023-04-28T08:26:45.627Z,5.77
2023-04-28T08:28:20.091Z,5.93
2023-04-28T08:29:53.210Z,6.03
2023-04-28T08:31:26.458Z,5.83
2023-04-28T08:32:59.631Z,5.60
2023-04-28T08:34:32.730Z,5.77
2023-04-28T08:36:06.452Z,5.30
2023-04-28T08:37:39.863Z,5.57
2023-04-28T08:39:13.660Z,5.70
2023-04-28T08:40:47.117Z,6.23
2023-04-28T08:42:20.391Z,5.73
2023-04-28T08:43:54.915Z,5.70
2023-04-28T08:45:31.282Z,6.27
2023-04-28T08:47:06.027Z,5.90
2023-04-28T08:48:42.086Z,5.37
2023-04-28T08:50:15.909Z,5.47
2023-04-28T08:51:53.404Z,5.60
2023-04-28T08:53:28.089Z,5.30
2023-04-28T08:55:03.188Z,5.00
2023-04-28T08:56:36.723Z,5.07
2023-04-28T08:58:10.238Z,5.30
2023-04-28T08:59:44.791Z,5.17
2023-04-28T09:01:18.015Z,5.20
2023-04-28T09:02:51.629Z,5.37
2023-04-28T09:04:25.470Z,5.20
2023-04-28T09:05:59.305Z,5.07
2023-04-28T09:07:32.422Z,5.00
2023-04-28T09:09:22.267Z,4.80
2023-04-28T09:11:09.268Z,4.97
2023-04-28T09:12:42.577Z,4.57
2023-04-28T09:14:15.860Z,4.33
2023-04-28T09:15:50.969Z,4.13
2023-04-28T09:17:23.242Z,4.60
2023-04-28T09:18:59.624Z,4.20
2023-04-28T09:20:34.296Z,4.33
2023-04-28T09:22:24.543Z,4.30
2023-04-28T09:23:58.363Z,4.53
2023-04-28T09:25:31.673Z,4.90
2023-04-28T09:27:07.562Z,4.33
2023-04-28T09:28:40.691Z,4.40
2023-04-28T09:30:14.398Z,4.37
2023-04-28T09:31:49.295Z,4.40
2023-04-28T09:33:23.061Z,4.33
2023-04-28T09:34:57.586Z,4.20
2023-04-28T09:36:31.114Z,4.67
2023-04-28T09:38:04.290Z,4.00
2023-04-28T09:39:37.470Z,4.33
2023-04-28T09:41:10.631Z,3.77
2023-04-28T09:42:45.132Z,4.43
2023-04-28T09:44:21.404Z,4.33
2023-04-28T09:45:55.178Z,4.50
2023-04-28T09:47:30.149Z,4.30
2023-04-28T09:49:03.299Z,4.43
2023-04-28T09:50:41.798Z,4.70
2023-04-28T09:52:15.230Z,5.10
2023-04-28T09:53:48.461Z,4.97
2023-04-28T09:55:21.705Z,4.43
2023-04-28T09:56:56.557Z,4.53
2023-04-28T09:58:32.256Z,4.43
2023-04-28T10:00:07.680Z,4.07
2023-04-28T10:01:42.709Z,4.40
2023-04-28T10:03:18.702Z,3.90
2023-04-28T10:04:53.935Z,3.80
2023-04-28T10:06:28.947Z,4.13
2023-04-28T10:08:03.672Z,4.00
2023-04-28T10:09:37.076Z,3.60
2023-04-28T10:11:10.375Z,4.07
2023-04-28T10:12:44.861Z,3.90
2023-04-28T10:14:18.064Z,4.20
2023-04-28T10:15:51.391Z,3.40
2023-04-28T10:17:25.542Z,3.83
2023-04-28T10:19:00.641Z,4.43
2023-04-28T10:20:34.957Z,3.50
2023-04-28T10:22:32.362Z,4.10
2023-04-28T10:24:16.325Z,4.20
2023-04-28T10:25:53.085Z,4.37
2023-04-28T10:27:31.585Z,4.10
2023-04-28T10:29:05.080Z,3.97
2023-04-28T10:30:38.987Z,4.33
2023-04-28T10:32:23.595Z,4.13
2023-04-28T10:33:57.419Z,4.20
2023-04-28T10:35:49.865Z,4.17
2023-04-28T10:38:09.846Z,4.37
2023-04-28T10:40:03.161Z,4.20
2023-04-28T10:41:36.525Z,4.17
2023-04-28T10:43:11.442Z,4.60
2023-04-28T10:44:44.878Z,4.47
2023-04-28T10:46:18.072Z,4.10
2023-04-28T10:48:06.176Z,4.30
2023-04-28T10:50:11.325Z,4.60
2023-04-28T10:51:45.882Z,4.23
2023-04-28T10:53:18.007Z,4.53
2023-04-28T10:55:24.633Z,4.30
2023-04-28T10:57:18.065Z,4.17
2023-04-28T10:58:51.949Z,4.60
2023-04-28T11:00:30.717Z,4.23
2023-04-28T11:02:38.572Z,4.80
2023-04-28T11:04:15.225Z,5.23
2023-04-28T11:06:26.603Z,5.23
2023-04-28T11:08:37.097Z,5.60
2023-04-28T11:10:10.459Z,6.10
2023-04-28T11:12:10.611Z,6.23
2023-04-28T11:13:43.331Z,5.73
2023-04-28T11:15:16.837Z,5.90
2023-04-28T11:16:51.744Z,6.70
2023-04-28T11:18:25.951Z,6.07
2023-04-28T11:20:01.291Z,6.13
2023-04-28T11:21:34.694Z,6.57
2023-04-28T11:23:09.391Z,6.20
2023-04-28T11:24:56.187Z,6.37
2023-04-28T11:26:30.290Z,6.43
2023-04-28T11:28:07.006Z,6.50
2023-04-28T11:29:41.599Z,5.90
2023-04-28T11:31:14.105Z,5.87
2023-04-28T11:32:51.594Z,6.27
2023-04-28T11:34:25.742Z,5.93
2023-04-28T11:35:58.357Z,6.27
2023-04-28T11:37:31.620Z,6.23
2023-04-28T11:39:08.771Z,6.80
2023-04-28T11:40:58.125Z,7.00
2023-04-28T11:42:31.851Z,7.23
2023-04-28T11:44:12.421Z,6.20
2023-04-28T11:45:47.697Z,6.40
2023-04-28T11:47:30.982Z,6.57
2023-04-28T11:49:05.632Z,6.03
2023-04-28T11:50:39.074Z,6.30
2023-04-28T11:52:12.955Z,6.47
2023-04-28T11:53:45.755Z,6.27
2023-04-28T11:55:19.024Z,6.83
2023-04-28T11:56:54.860Z,6.70
2023-04-28T11:58:28.029Z,6.43
2023-04-28T12:00:15.157Z,7.07
2023-04-28T12:01:51.861Z,6.83
2023-04-28T12:03:24.290Z,8.07
2023-04-28T12:04:57.753Z,9.27
2023-04-28T12:06:30.904Z,9.10
2023-04-28T12:08:04.038Z,9.10
2023-04-28T12:09:37.669Z,8.47
2023-04-28T12:11:10.813Z,9.43
2023-04-28T12:12:51.701Z,8.97
2023-04-28T12:14:26.388Z,9.30
2023-04-28T12:16:01.994Z,9.27
2023-04-28T12:17:36.625Z,10.00
2023-04-28T12:19:10.980Z,9.70
2023-04-28T12:20:44.099Z,10.40
2023-04-28T12:22:17.972Z,9.87
2023-04-28T12:23:51.680Z,10.03
2023-04-28T12:25:24.790Z,10.27
2023-04-28T12:27:15.789Z,10.40
2023-04-28T12:28:50.241Z,10.23
2023-04-28T12:30:26.588Z,10.00
2023-04-28T12:31:59.709Z,10.63
2023-04-28T12:33:34.150Z,10.77
2023-04-28T12:35:08.180Z,10.77
2023-04-28T12:36:41.339Z,11.50
2023-04-28T12:38:14.486Z,10.30
2023-04-28T12:39:47.575Z,11.10
2023-04-28T12:41:20.699Z,10.60
2023-04-28T12:42:53.814Z,11.57
2023-04-28T12:44:28.951Z,10.90
2023-04-28T12:46:02.278Z,10.77
2023-04-28T12:47:35.469Z,11.60
2023-04-28T12:49:07.671Z,11.67
2023-04-28T12:50:40.822Z,11.33
2023-04-28T12:52:14.009Z,12.03
2023-04-28T12:53:47.120Z,12.40
2023-04-28T12:55:20.198Z,11.00
2023-04-28T12:56:54.556Z,11.33
2023-04-28T12:58:27.689Z,11.40
2023-04-28T13:00:02.474Z,12.50
2023-04-28T13:01:35.605Z,12.97
2023-04-28T13:03:08.968Z,11.57
2023-04-28T13:04:42.939Z,11.83
2023-04-28T13:06:15.592Z,11.60
2023-04-28T13:07:49.454Z,12.00
2023-04-28T13:09:22.550Z,11.40
2023-04-28T13:10:55.661Z,12.97
2023-04-28T13:12:28.736Z,13.00
2023-04-28T13:14:02.221Z,13.40
2023-04-28T13:15:38.872Z,12.70
2023-04-28T13:17:12.811Z,13.50
2023-04-28T13:18:45.987Z,13.80
2023-04-28T13:20:19.418Z,13.60
2023-04-28T13:21:52.643Z,13.53
2023-04-28T13:23:25.861Z,12.70
2023-04-28T13:24:59.060Z,13.97
2023-04-28T13:26:32.231Z,13.30
2023-04-28T13:28:05.532Z,12.67
2023-04-28T13:29:38.655Z,13.67
2023-04-28T13:31:13.199Z,12.10
2023-04-28T13:32:46.378Z,12.60
2023-04-28T13:34:19.560Z,12.67
2023-04-28T13:35:51.657Z,12.67
2023-04-28T13:37:24.874Z,11.90
2023-04-28T13:38:59.052Z,11.13
2023-04-28T13:40:33.802Z,12.27
2023-04-28T13:42:07.232Z,11.77
2023-04-28T13:43:40.509Z,12.13
2023-04-28T13:45:16.142Z,12.60
2023-04-28T13:46:52.112Z,12.70
2023-04-28T13:48:27.674Z,12.37
2023-04-28T13:50:01.348Z,12.67
2023-04-28T13:51:34.494Z,12.80
2023-04-28T13:53:08.314Z,13.17
2023-04-28T13:54:43.103Z,12.40
2023-04-28T13:56:16.477Z,12.73
2023-04-28T13:57:49.617Z,13.00
2023-04-28T13:59:22.718Z,13.73
2023-04-28T14:00:57.292Z,13.73
2023-04-28T14:02:32.120Z,13.70
2023-04-28T14:04:05.547Z,14.40
2023-04-28T14:05:48.959Z,13.13
2023-04-28T14:07:23.149Z,13.07
2023-04-28T14:08:56.515Z,12.93
2023-04-28T14:10:29.740Z,12.87
2023-04-28T14:12:03.088Z,13.03
2023-04-28T14:13:36.456Z,13.57
2023-04-28T14:15:10.183Z,12.67
2023-04-28T14:16:45.267Z,13.00
2023-04-28T14:18:19.844Z,13.67
2023-04-28T14:19:53.041Z,13.13
2023-04-28T14:21:26.638Z,13.33
2023-04-28T14:23:00.136Z,13.07
2023-04-28T14:24:33.246Z,13.50
2023-04-28T14:26:07.203Z,13.50
2023-04-28T14:27:41.447Z,13.97
2023-04-28T14:29:14.687Z,12.97
2023-04-28T14:30:47.859Z,12.10
2023-04-28T14:32:21.646Z,12.73
2023-04-28T14:33:56.101Z,13.33
2023-04-28T14:35:30.357Z,12.93
2023-04-28T14:37:03.600Z,12.83
2023-04-28T14:38:38.264Z,11.90
2023-04-28T14:40:13.200Z,12.80
2023-04-28T14:41:46.320Z,12.27
2023-04-28T14:43:19.481Z,11.03
2023-04-28T14:44:54.468Z,11.33
2023-04-28T14:46:27.985Z,11.07
2023-04-28T14:48:01.210Z,11.40
2023-04-28T14:49:35.785Z,10.97
2023-04-28T14:51:09.063Z,11.53
2023-04-28T14:52:42.543Z,10.77
2023-04-28T14:54:15.804Z,12.00
2023-04-28T14:55:48.925Z,11.23
2023-04-28T14:57:22.044Z,10.13
2023-04-28T14:58:55.263Z,10.60
2023-04-28T15:00:28.449Z,10.07
2023-04-28T15:02:02.062Z,9.73
2023-04-28T15:03:35.408Z,9.87
2023-04-28T15:05:11.637Z,9.73
2023-04-28T15:06:44.839Z,10.03
2023-04-28T15:08:17.997Z,9.70
2023-04-28T15:09:51.224Z,10.03
2023-04-28T15:11:24.384Z,9.77
2023-04-28T15:12:57.588Z,10.30
2023-04-28T15:14:31.124Z,10.07
2023-04-28T15:16:04.240Z,10.37
2023-04-28T15:17:37.474Z,10.23
2023-04-28T15:19:10.711Z,10.43
2023-04-28T15:20:45.940Z,10.87
2023-04-28T15:22:19.276Z,10.37
2023-04-28T15:23:52.470Z,10.03
2023-04-28T15:25:26.188Z,10.63
2023-04-28T15:26:59.684Z,9.80
2023-04-28T15:28:32.855Z,10.73
2023-04-28T15:30:07.561Z,10.83
2023-04-28T15:31:41.669Z,10.30
2023-04-28T15:33:17.529Z,10.17
2023-04-28T15:34:51.083Z,10.17
2023-04-28T15:36:26.724Z,9.67
2023-04-28T15:38:00.182Z,11.07
2023-04-28T15:39:33.713Z,11.10
2023-04-28T15:41:06.844Z,10.43
2023-04-28T15:42:42.140Z,10.53
2023-04-28T15:44:15.463Z,10.23
2023-04-28T15:45:48.769Z,10.50
2023-04-28T15:47:21.993Z,10.33
2023-04-28T15:48:55.263Z,11.47
2023-04-28T15:50:28.647Z,10.40
2023-04-28T15:52:03.469Z,10.73
2023-04-28T15:53:36.566Z,10.60
2023-04-28T15:55:10.875Z,10.33
2023-04-28T15:56:44.247Z,10.33
2023-04-28T15:58:17.346Z,9.23
2023-04-28T15:59:51.769Z,11.90
2023-04-28T16:01:26.018Z,10.97
2023-04-28T16:03:01.417Z,11.60
2023-04-28T16:04:34.932Z,9.57
2023-04-28T16:06:08.330Z,9.10
2023-04-28T16:07:44.287Z,8.77
2023-04-28T16:09:17.570Z,8.10
2023-04-28T16:10:50.774Z,8.60
2023-04-28T16:12:24.026Z,8.23
2023-04-28T16:13:57.166Z,9.07
2023-04-28T16:15:30.331Z,8.73
2023-04-28T16:17:03.755Z,9.57
2023-04-28T16:18:36.957Z,9.53
2023-04-28T16:20:11.607Z,9.53
2023-04-28T16:21:45.193Z,9.60
2023-04-28T16:23:20.445Z,9.10
2023-04-28T16:24:53.831Z,8.87
2023-04-28T16:26:26.959Z,9.40
2023-04-28T16:28:00.130Z,10.40
2023-04-28T16:29:33.218Z,9.80
2023-04-28T16:31:06.825Z,10.03
2023-04-28T16:32:40.857Z,10.10
2023-04-28T16:34:14.116Z,10.43
2023-04-28T16:35:55.677Z,9.97
2023-04-28T16:37:28.933Z,9.73
2023-04-28T16:39:03.399Z,10.13
2023-04-28T16:40:36.570Z,11.00
2023-04-28T16:42:09.834Z,11.33
2023-04-28T16:43:42.941Z,11.27
2023-04-28T16:45:16.582Z,11.20
2023-04-28T16:46:49.689Z,9.50
2023-04-28T16:48:23.694Z,11.23
2023-04-28T16:49:56.845Z,10.20
2023-04-28T16:51:29.966Z,10.60
2023-04-28T16:53:03.117Z,10.27
2023-04-28T16:54:37.628Z,9.90
2023-04-28T16:56:11.237Z,10.57
2023-04-28T16:57:44.477Z,10.00
2023-04-28T16:59:18.690Z,9.17
2023-04-28T17:00:52.273Z,9.20
2023-04-28T17:02:26.269Z,9.73
2023-04-28T17:03:59.828Z,9.20
2023-04-28T17:05:33.580Z,9.00
2023-04-28T17:07:07.385Z,8.73
2023-04-28T17:08:41.018Z,8.40
2023-04-28T17:10:15.503Z,9.57
2023-04-28T17:11:48.922Z,9.00
2023-04-28T17:13:22.017Z,9.13
2023-04-28T17:14:55.166Z,8.70
2023-04-28T17:16:32.345Z,8.73
2023-04-28T17:18:05.942Z,9.40
2023-04-28T17:19:41.624Z,9.07
2023-04-28T17:21:16.744Z,9.03
2023-04-28T17:22:50.393Z,8.77
2023-04-28T17:24:24.402Z,9.07
2023-04-28T17:25:58.905Z,8.90
2023-04-28T17:27:31.996Z,9.03
2023-04-28T17:29:05.292Z,9.07
2023-04-28T17:30:38.649Z,9.17
2023-04-28T17:32:12.101Z,9.33
2023-04-28T17:33:45.295Z,8.97
2023-04-28T17:35:18.432Z,8.80
2023-04-28T17:36:51.687Z,8.50
2023-04-28T17:38:24.824Z,9.07
2023-04-28T17:39:58.450Z,8.50
2023-04-28T17:41:33.076Z,8.47
2023-04-28T17:43:06.260Z,8.40
2023-04-28T17:44:39.361Z,8.07
2023-04-28T17:46:13.347Z,8.27
2023-04-28T17:47:46.682Z,8.43
2023-04-28T17:49:19.854Z,7.33
2023-04-28T17:50:53.344Z,8.20
2023-04-28T17:52:26.501Z,8.60
2023-04-28T17:53:59.802Z,8.60
2023-04-28T17:55:33.771Z,8.50
2023-04-28T17:57:08.280Z,8.10
2023-04-28T17:58:41.443Z,8.70
2023-04-28T18:00:15.392Z,8.03
2023-04-28T18:01:48.558Z,8.50
2023-04-28T18:03:21.861Z,8.53
2023-04-28T18:04:55.912Z,8.67
2023-04-28T18:06:29.883Z,8.23
2023-04-28T18:08:03.894Z,7.60
2023-04-28T18:09:37.221Z,7.70
2023-04-28T18:11:10.337Z,7.93
2023-04-28T18:12:46.342Z,7.80
2023-04-28T18:14:19.481Z,7.70
2023-04-28T18:15:52.706Z,8.10
2023-04-28T18:17:26.208Z,7.90
2023-04-28T18:18:59.567Z,8.07
2023-04-28T18:20:32.698Z,7.80
2023-04-28T18:22:06.118Z,8.00
2023-04-28T18:23:39.311Z,7.80
2023-04-28T18:25:13.314Z,7.70
2023-04-28T18:26:46.626Z,8.63
2023-04-28T18:28:21.114Z,7.87
2023-04-28T18:29:54.348Z,8.23
2023-04-28T18:31:27.580Z,8.50
2023-04-28T18:33:00.735Z,10.90
2023-04-28T18:34:33.887Z,8.93
2023-04-28T18:36:07.746Z,8.63
2023-04-28T18:37:41.091Z,8.67
2023-04-28T18:39:14.169Z,8.63
2023-04-28T18:40:47.246Z,8.87
2023-04-28T18:42:20.595Z,9.37
2023-04-28T18:43:58.285Z,10.03
2023-04-28T18:45:32.500Z,9.80
2023-04-28T18:47:05.594Z,10.17
2023-04-28T18:48:39.996Z,10.87
2023-04-28T18:50:13.075Z,10.80
2023-04-28T18:51:46.178Z,11.07
2023-04-28T18:53:19.298Z,11.80
2023-04-28T18:54:52.389Z,11.43
2023-04-28T18:56:25.493Z,11.60
2023-04-28T18:57:58.620Z,11.20
2023-04-28T18:59:33.615Z,10.73
2023-04-28T19:01:06.906Z,11.50
2023-04-28T19:02:40.239Z,11.87
2023-04-28T19:04:13.634Z,12.40
2023-04-28T19:05:47.580Z,12.30
2023-04-28T19:07:20.884Z,12.23
2023-04-28T19:08:53.995Z,12.30
2023-04-28T19:10:27.268Z,12.27
2023-04-28T19:12:00.363Z,13.00
2023-04-28T19:13:34.831Z,13.20
2023-04-28T19:15:10.661Z,12.87
2023-04-28T19:16:44.372Z,12.97
2023-04-28T19:18:17.651Z,13.17
2023-04-28T19:19:51.061Z,12.90
2023-04-28T19:21:25.411Z,13.30
2023-04-28T19:23:01.297Z,13.20
2023-04-28T19:24:34.684Z,13.13
2023-04-28T19:26:08.540Z,13.13
2023-04-28T19:27:43.035Z,14.57
2023-04-28T19:29:17.325Z,13.67
2023-04-28T19:30:51.911Z,13.97
2023-04-28T19:32:25.048Z,14.07
2023-04-28T19:33:58.939Z,13.67
2023-04-28T19:35:32.018Z,13.47
2023-04-28T19:37:09.863Z,13.80
2023-04-28T19:38:42.992Z,13.60
2023-04-28T19:40:17.498Z,13.73
2023-04-28T19:41:50.667Z,13.30
2023-04-28T19:43:23.789Z,14.70
2023-04-28T19:44:58.336Z,13.43
2023-04-28T19:46:32.846Z,13.10
2023-04-28T19:48:06.613Z,13.17
2023-04-28T19:49:41.333Z,13.50
2023-04-28T19:51:16.864Z,13.30
2023-04-28T19:52:49.988Z,12.63
2023-04-28T19:54:23.578Z,13.13
2023-04-28T19:55:58.826Z,12.53
2023-04-28T19:57:31.915Z,12.60
2023-04-28T19:59:05.013Z,11.80
2023-04-28T20:00:38.109Z,12.30
2023-04-28T20:02:13.067Z,12.20
2023-04-28T20:03:46.216Z,12.63
2023-04-28T20:05:19.756Z,12.70
2023-04-28T20:06:53.682Z,12.07
2023-04-28T20:08:27.665Z,12.20
2023-04-28T20:10:00.838Z,11.90
2023-04-28T20:11:35.189Z,12.57
2023-04-28T20:13:08.316Z,11.97
2023-04-28T20:14:41.720Z,12.23
2023-04-28T20:16:14.829Z,12.43
2023-04-28T20:17:49.389Z,11.17
2023-04-28T20:19:22.595Z,11.97
2023-04-28T20:20:55.734Z,12.20
2023-04-28T20:22:28.820Z,12.60
2023-04-28T20:24:02.125Z,11.70
2023-04-28T20:25:37.334Z,12.70
2023-04-28T20:27:11.276Z,13.03
2023-04-28T20:28:46.476Z,13.00
2023-04-28T20:30:19.616Z,12.83
2023-04-28T20:31:52.871Z,12.83
2023-04-28T20:33:27.375Z,14.17
2023-04-28T20:35:00.640Z,13.83
2023-04-28T20:36:34.095Z,13.37
2023-04-28T20:38:07.435Z,13.43